Time;durP1;ratioP1;P1;durP2;ratioP2;P2;SDS_P1;SDS_P2;PMS_P1;PMS_P2;Temp;Humidity;BMP_temperature;BMP_pressure;BME280_temperature;BME280_humidity;BME280_pressure;Samples;Min_cycle;Max_cycle;Signal;HPM_P1;HPM_P2
2022/12/13 00:01:16;;;;;;;;;;;-0.30;99.90;;;;;;5012161;28;19993;-80
2022/12/13 00:03:42;;;;;;;;;;;-0.30;99.90;;;;;;5011549;28;19996;-76
2022/12/13 00:06:09;;;;;;;;;;;-0.30;99.90;;;;;;5011502;28;19909;-77
2022/12/13 00:08:34;;;;;;;;;;;-0.40;99.90;;;;;;5014769;28;20284;-76
2022/12/13 00:11:01;;;;;;;;;;;-0.40;99.90;;;;;;5015354;28;20007;-77
2022/12/13 00:13:27;;;;;;;;;;;-0.40;99.90;;;;;;5015272;28;19964;-77
2022/12/13 00:15:56;;;;;;;;;;;-0.40;99.90;;;;;;5015335;28;19914;-77
2022/12/13 00:18:22;;;;;;;;;;;-0.40;99.90;;;;;;5015230;28;19914;-76
2022/12/13 00:20:48;;;;;;;;;;;-0.40;99.90;;;;;;5015524;28;20323;-75
2022/12/13 00:23:13;;;;;;;;;;;-0.50;99.90;;;;;;5015213;28;19945;-77
2022/12/13 00:25:39;;;;;;;;;;;-0.50;99.90;;;;;;5015018;28;19906;-76
2022/12/13 00:28:04;;;;;;;;;;;-0.50;99.90;;;;;;5015207;28;20273;-76
2022/12/13 00:30:33;;;;;;;;;;;-0.60;99.90;;;;;;5014804;28;20375;-77
2022/12/13 00:32:58;;;;;;;;;;;-0.60;99.90;;;;;;5015341;28;19916;-77
2022/12/13 00:35:24;;;;;;;;;;;-0.60;99.90;;;;;;5014430;28;19922;-77
2022/12/13 00:37:49;;;;;;;;;;;-0.60;99.90;;;;;;5015084;28;19921;-77
2022/12/13 00:40:15;;;;;;;;;;;-0.70;99.90;;;;;;5014887;28;20397;-77
2022/12/13 00:42:40;;;;;;;;;;;-0.70;99.90;;;;;;5014630;28;20059;-77
2022/12/13 00:45:06;;;;;;;;;;;-0.60;99.90;;;;;;5014810;28;19948;-77
2022/12/13 00:47:32;;;;;;;;;;;-0.70;99.90;;;;;;5014456;28;19910;-77
2022/12/13 00:49:57;;;;;;;;;;;-0.70;99.90;;;;;;5014756;28;20303;-76
2022/12/13 00:52:23;;;;;;;;;;;-0.70;99.90;;;;;;5014362;28;19909;-78
2022/12/13 00:54:48;;;;;;;;;;;-0.70;99.90;;;;;;5014855;28;20057;-76
2022/12/13 00:57:14;;;;;;;;;;;-0.60;99.90;;;;;;5014983;28;19968;-77
2022/12/13 00:59:40;;;;;;;;;;;-0.70;99.90;;;;;;5014075;28;20422;-77
2022/12/13 01:02:05;;;;;;;;;;;-0.70;99.90;;;;;;5014238;28;19920;-76
2022/12/13 01:04:31;;;;;;;;;;;-0.70;99.90;;;;;;5013975;28;20298;-76
2022/12/13 01:06:56;;;;;;;;;;;-0.70;99.90;;;;;;5013048;28;19916;-76
2022/12/13 01:09:28;;;;;;;;;;;-0.80;99.90;;;;;;5014106;28;19945;-80
2022/12/13 01:11:57;;;;;;;;;;;-0.80;99.90;;;;;;5014412;28;20261;-79
2022/12/13 01:14:24;;;;;;;;;;;-0.80;99.90;;;;;;5014288;28;19959;-81
2022/12/13 01:16:49;;;;;;;;;;;-0.80;99.90;;;;;;5014254;28;20330;-78
2022/12/13 01:19:15;;;;;;;;;;;-0.80;99.90;;;;;;5014160;28;19998;-77
2022/12/13 01:21:40;;;;;;;;;;;-0.80;99.90;;;;;;5013477;28;20493;-76
2022/12/13 01:24:06;;;;;;;;;;;-0.70;99.90;;;;;;5014273;28;19932;-76
2022/12/13 01:26:32;;;;;;;;;;;-0.70;99.90;;;;;;5013638;28;20067;-76
2022/12/13 01:28:58;;;;;;;;;;;-0.70;99.90;;;;;;5014029;28;20377;-75
2022/12/13 01:31:24;;;;;;;;;;;-0.70;99.90;;;;;;5013662;28;19917;-79
2022/12/13 01:33:49;;;;;;;;;;;-0.70;99.90;;;;;;5013892;28;19913;-77
2022/12/13 01:36:19;;;;;;;;;;;-0.60;99.90;;;;;;5013525;28;20026;-76
2022/12/13 01:38:44;;;;;;;;;;;-0.70;99.90;;;;;;5013218;28;20515;-77
2022/12/13 01:41:17;;;;;;;;;;;-0.70;99.90;;;;;;5013836;28;19914;-76
2022/12/13 01:43:42;;;;;;;;;;;-0.70;99.90;;;;;;5013372;28;19932;-76
2022/12/13 01:46:09;;;;;;;;;;;-0.60;99.90;;;;;;5013660;28;20311;-75
2022/12/13 01:48:38;;;;;;;;;;;-0.70;99.90;;;;;;5013058;28;19972;-75
2022/12/13 01:51:05;;;;;;;;;;;-0.70;99.90;;;;;;5013866;28;20256;-76
2022/12/13 01:53:32;;;;;;;;;;;-0.60;99.90;;;;;;5013808;28;20470;-77
2022/12/13 01:56:01;;;;;;;;;;;-0.60;99.90;;;;;;5013874;28;19984;-77
2022/12/13 01:58:27;;;;;;;;;;;-0.70;99.90;;;;;;5013413;28;19993;-80
2022/12/13 02:00:52;;;;;;;;;;;-0.80;99.90;;;;;;5012155;28;19917;-77
2022/12/13 02:03:19;;;;;;;;;;;-0.80;99.90;;;;;;5013569;28;19936;-77
2022/12/13 02:06:14;;;;;;;;;;;-0.80;99.90;;;;;;5013056;28;19909;-78
2022/12/13 02:08:41;;;;;;;;;;;-0.80;99.90;;;;;;5003835;28;20015;-77
2022/12/13 02:11:08;;;;;;;;;;;-0.70;99.90;;;;;;5013731;28;19929;-76
2022/12/13 02:13:33;;;;;;;;;;;-0.70;99.90;;;;;;5012885;28;20441;-77
2022/12/13 02:16:05;;;;;;;;;;;-0.60;99.90;;;;;;5013332;28;19964;-77
2022/12/13 02:18:33;;;;;;;;;;;-0.60;99.90;;;;;;5012310;28;19913;-78
2022/12/13 02:21:11;;;;;;;;;;;-0.50;99.90;;;;;;5013719;28;20268;-77
2022/12/13 02:23:55;;;;;;;;;;;-0.50;99.90;;;;;;5013284;28;19909;-78
2022/12/13 02:26:36;;;;;;;;;;;-0.40;99.90;;;;;;5013387;28;19927;-77
2022/12/13 02:29:02;;;;;;;;;;;-0.40;99.90;;;;;;5013538;28;19921;-77
2022/12/13 02:31:29;;;;;;;;;;;-0.40;99.90;;;;;;5010978;28;19932;-80
2022/12/13 02:34:21;;;;;;;;;;;-0.40;99.90;;;;;;5013121;28;19919;-77
2022/12/13 02:37:05;;;;;;;;;;;-0.40;99.90;;;;;;4973277;28;20380;-77
2022/12/13 02:39:33;;;;;;;;;;;-0.20;99.90;;;;;;4972381;28;19914;-77
2022/12/13 02:42:24;;;;;;;;;;;-0.30;99.90;;;;;;4973751;28;19988;-77
2022/12/13 02:44:54;;;;;;;;;;;-0.30;99.90;;;;;;4973082;28;19913;-77
2022/12/13 02:47:21;;;;;;;;;;;-0.30;99.90;;;;;;4973792;28;19910;-77
2022/12/13 02:49:48;;;;;;;;;;;-0.30;99.90;;;;;;4972154;28;19961;-77
2022/12/13 02:52:16;;;;;;;;;;;-0.30;99.90;;;;;;4973979;28;19950;-77
2022/12/13 02:54:42;;;;;;;;;;;-0.20;99.90;;;;;;4973577;28;19914;-78
2022/12/13 02:57:26;;;;;;;;;;;-0.20;99.90;;;;;;4973912;28;19974;-76
2022/12/13 02:59:51;;;;;;;;;;;-0.30;99.90;;;;;;4973054;28;19918;-76
2022/12/13 03:02:43;;;;;;;;;;;-0.30;99.90;;;;;;4973402;28;19918;-76
2022/12/13 03:08:21;;;;;;;;;;;-0.30;99.90;;;;;;4973183;28;20279;-76
2022/12/13 03:10:52;;;;;;;;;;;-0.30;99.90;;;;;;4972772;28;19997;-76
2022/12/13 03:13:35;;;;;;;;;;;-0.30;99.90;;;;;;4973497;28;20053;-77
2022/12/13 03:16:13;;;;;;;;;;;-0.30;99.90;;;;;;4972620;28;19932;-77
2022/12/13 03:18:40;;;;;;;;;;;-0.40;99.90;;;;;;4971479;28;20266;-76
2022/12/13 03:21:07;;;;;;;;;;;-0.50;99.90;;;;;;4973573;28;19921;-76
2022/12/13 03:23:33;;;;;;;;;;;-0.50;99.90;;;;;;4972651;28;20360;-79
2022/12/13 03:26:08;;;;;;;;;;;-0.50;99.90;;;;;;4973251;28;19996;-76
2022/12/13 03:28:33;;;;;;;;;;;-0.50;99.90;;;;;;4971514;28;19910;-80
2022/12/13 03:30:59;;;;;;;;;;;-0.60;99.90;;;;;;4973077;28;20014;-75
2022/12/13 03:33:25;;;;;;;;;;;-0.70;99.90;;;;;;4973110;28;19910;-77
2022/12/13 03:35:50;;;;;;;;;;;-0.70;99.90;;;;;;5002733;28;19925;-78
2022/12/13 03:38:16;;;;;;;;;;;-0.70;99.90;;;;;;5012197;28;19919;-76
2022/12/13 03:40:42;;;;;;;;;;;-0.70;99.90;;;;;;5011611;28;19913;-76
2022/12/13 03:43:08;;;;;;;;;;;-0.70;99.90;;;;;;5012091;28;19910;-75
2022/12/13 03:45:33;;;;;;;;;;;-0.80;99.90;;;;;;5011743;28;19909;-81
2022/12/13 03:47:59;;;;;;;;;;;-0.70;99.90;;;;;;5012038;28;19921;-77
2022/12/13 03:50:24;;;;;;;;;;;-0.80;99.90;;;;;;5012150;28;20044;-77
2022/12/13 03:52:50;;;;;;;;;;;-0.80;99.90;;;;;;5011183;28;19909;-78
2022/12/13 03:55:16;;;;;;;;;;;-0.70;99.90;;;;;;5010203;28;19911;-76
2022/12/13 03:57:42;;;;;;;;;;;-0.70;99.90;;;;;;5011428;28;19956;-78
2022/12/13 04:00:08;;;;;;;;;;;-0.80;99.90;;;;;;5011717;28;20251;-77
2022/12/13 04:02:33;;;;;;;;;;;-0.70;99.90;;;;;;5011751;28;19913;-80
2022/12/13 04:04:59;;;;;;;;;;;-0.80;99.90;;;;;;5011196;28;19956;-77
2022/12/13 04:07:24;;;;;;;;;;;-0.90;99.90;;;;;;5011169;28;19916;-77
2022/12/13 04:09:50;;;;;;;;;;;-0.90;99.90;;;;;;5010990;28;19910;-76
2022/12/13 04:15:00;;;;;;;;;;;-0.90;99.90;;;;;;5011571;28;19975;-77
2022/12/13 04:17:25;;;;;;;;;;;-0.90;99.90;;;;;;5012418;28;19910;-77
2022/12/13 04:19:51;;;;;;;;;;;-0.90;99.90;;;;;;5011952;28;19963;-78
2022/12/13 04:22:17;;;;;;;;;;;-0.80;99.90;;;;;;5012358;28;19921;-77
2022/12/13 04:24:42;;;;;;;;;;;-0.80;99.90;;;;;;5011947;28;20363;-77
2022/12/13 04:27:08;;;;;;;;;;;-0.90;99.90;;;;;;5009830;28;19910;-77
2022/12/13 04:29:33;;;;;;;;;;;-0.90;99.90;;;;;;5011478;28;19909;-77
2022/12/13 04:31:59;;;;;;;;;;;-0.90;99.90;;;;;;5009207;28;20244;-77
2022/12/13 04:34:24;;;;;;;;;;;-0.80;99.90;;;;;;5011557;28;20023;-77
2022/12/13 04:36:50;;;;;;;;;;;-0.80;99.90;;;;;;5010968;28;19909;-78
2022/12/13 04:39:15;;;;;;;;;;;-0.80;99.90;;;;;;5010977;28;19913;-77
2022/12/13 04:41:43;;;;;;;;;;;-0.70;99.90;;;;;;5009985;28;20441;-77
2022/12/13 04:44:09;;;;;;;;;;;-0.70;99.90;;;;;;5010021;28;20015;-77
2022/12/13 04:46:34;;;;;;;;;;;-0.60;99.90;;;;;;5009947;28;19957;-77
2022/12/13 04:49:00;;;;;;;;;;;-0.70;99.90;;;;;;5011446;28;19909;-76
2022/12/13 04:51:26;;;;;;;;;;;-0.60;99.90;;;;;;5010878;28;19910;-77
2022/12/13 04:53:52;;;;;;;;;;;-0.60;99.90;;;;;;5012490;28;20355;-77
2022/12/13 04:56:17;;;;;;;;;;;-0.60;99.90;;;;;;5014893;28;19996;-77
2022/12/13 04:58:43;;;;;;;;;;;-0.60;99.90;;;;;;5014267;28;20249;-77
2022/12/13 05:01:09;;;;;;;;;;;-0.50;99.90;;;;;;5014534;28;19925;-77
2022/12/13 05:03:35;;;;;;;;;;;-0.50;99.90;;;;;;5012973;28;19914;-77
2022/12/13 05:06:08;;;;;;;;;;;-0.50;99.90;;;;;;5014035;28;20004;-77
2022/12/13 05:08:35;;;;;;;;;;;-0.40;99.90;;;;;;5014493;28;19910;-77
2022/12/13 05:11:01;;;;;;;;;;;-0.40;99.90;;;;;;5014165;28;19917;-77
2022/12/13 05:13:26;;;;;;;;;;;-0.30;99.90;;;;;;5014285;28;19909;-78
2022/12/13 05:16:00;;;;;;;;;;;-0.30;99.90;;;;;;5014061;28;20046;-77
2022/12/13 05:18:26;;;;;;;;;;;-0.30;99.90;;;;;;5014422;28;19913;-77
2022/12/13 05:20:52;;;;;;;;;;;-0.30;99.90;;;;;;5013994;28;19944;-77
2022/12/13 05:23:18;;;;;;;;;;;-0.30;99.90;;;;;;5014375;28;19909;-78
2022/12/13 05:25:43;;;;;;;;;;;-0.30;99.90;;;;;;5013612;28;20233;-78
2022/12/13 05:28:09;;;;;;;;;;;-0.30;99.90;;;;;;5014093;28;19991;-76
2022/12/13 05:30:38;;;;;;;;;;;-0.30;99.90;;;;;;5014689;28;20243;-78
2022/12/13 05:33:03;;;;;;;;;;;-0.30;99.90;;;;;;5013597;28;19961;-77
2022/12/13 05:35:29;;;;;;;;;;;-0.30;99.90;;;;;;5013875;28;19979;-76
2022/12/13 05:37:54;;;;;;;;;;;-0.30;99.90;;;;;;5013462;28;19918;-77
2022/12/13 05:40:24;;;;;;;;;;;-0.30;99.90;;;;;;5013774;28;19968;-77
2022/12/13 05:42:49;;;;;;;;;;;-0.30;99.90;;;;;;5013258;28;19909;-76
2022/12/13 05:45:16;;;;;;;;;;;-0.30;99.90;;;;;;5013538;28;19909;-77
2022/12/13 05:47:42;;;;;;;;;;;-0.20;99.90;;;;;;5013262;28;19909;-81
2022/12/13 05:50:08;;;;;;;;;;;-0.10;99.90;;;;;;5012419;28;19921;-77
2022/12/13 05:52:33;;;;;;;;;;;-0.10;99.90;;;;;;5013474;28;19910;-78
2022/12/13 05:54:59;;;;;;;;;;;-0.10;99.90;;;;;;5011223;28;20363;-77
2022/12/13 05:57:24;;;;;;;;;;;0.00;99.90;;;;;;5013385;28;19989;-77
2022/12/13 05:59:50;;;;;;;;;;;0.00;99.90;;;;;;5011684;28;19913;-77
2022/12/13 06:02:18;;;;;;;;;;;0.00;99.90;;;;;;5013286;28;20401;-77
2022/12/13 06:04:44;;;;;;;;;;;0.00;99.90;;;;;;5012183;28;19910;-78
2022/12/13 06:07:10;;;;;;;;;;;-0.10;99.90;;;;;;5012135;28;19928;-77
2022/12/13 06:09:35;;;;;;;;;;;0.00;99.90;;;;;;5013359;28;19940;-77
2022/12/13 06:12:01;;;;;;;;;;;-0.10;99.90;;;;;;5012459;28;20357;-77
2022/12/13 06:14:27;;;;;;;;;;;0.00;99.90;;;;;;5012931;28;20317;-77
2022/12/13 06:16:52;;;;;;;;;;;0.00;99.90;;;;;;5012705;28;19956;-77
2022/12/13 06:19:19;;;;;;;;;;;0.00;99.90;;;;;;5013007;28;19914;-77
2022/12/13 06:21:44;;;;;;;;;;;0.00;99.90;;;;;;5012789;28;19913;-79
2022/12/13 06:24:10;;;;;;;;;;;0.00;99.90;;;;;;5012494;28;19956;-78
2022/12/13 06:26:35;;;;;;;;;;;0.00;99.90;;;;;;5013218;28;20005;-77
2022/12/13 06:29:01;;;;;;;;;;;0.00;99.90;;;;;;5012368;28;19909;-77
2022/12/13 06:31:27;;;;;;;;;;;0.00;99.90;;;;;;5013063;28;19953;-76
2022/12/13 06:33:52;;;;;;;;;;;0.10;99.90;;;;;;5012365;28;19909;-77
2022/12/13 06:36:18;;;;;;;;;;;0.10;99.90;;;;;;5012725;28;19928;-77
2022/12/13 06:38:43;;;;;;;;;;;0.00;99.90;;;;;;5012630;28;19960;-80
2022/12/13 06:41:13;;;;;;;;;;;0.00;99.90;;;;;;5012469;28;19940;-77
2022/12/13 06:43:42;;;;;;;;;;;0.00;99.90;;;;;;5012632;28;19913;-77
2022/12/13 06:46:08;;;;;;;;;;;0.00;99.90;;;;;;5012070;28;19909;-77
2022/12/13 06:48:34;;;;;;;;;;;0.10;99.90;;;;;;5011923;28;19924;-77
2022/12/13 06:51:00;;;;;;;;;;;0.10;99.90;;;;;;5010887;28;19909;-77
2022/12/13 06:53:26;;;;;;;;;;;0.00;99.90;;;;;;5012538;28;19980;-77
2022/12/13 06:55:52;;;;;;;;;;;0.00;99.90;;;;;;5012268;28;19909;-78
2022/12/13 06:58:17;;;;;;;;;;;0.00;99.90;;;;;;5012798;28;19910;-77
2022/12/13 07:00:43;;;;;;;;;;;0.00;99.90;;;;;;5012417;28;19913;-76
2022/12/13 07:03:10;;;;;;;;;;;0.00;99.90;;;;;;5011918;28;19913;-76
2022/12/13 07:05:37;;;;;;;;;;;0.00;99.90;;;;;;5010839;28;20433;-77
2022/12/13 07:08:02;;;;;;;;;;;0.00;99.90;;;;;;5011251;28;19930;-76
2022/12/13 07:10:28;;;;;;;;;;;0.00;99.90;;;;;;5012092;28;19909;-76
2022/12/13 07:12:53;;;;;;;;;;;0.00;99.90;;;;;;5012332;28;20005;-77
2022/12/13 07:15:19;;;;;;;;;;;0.00;99.90;;;;;;5011390;28;19985;-76
2022/12/13 07:17:47;;;;;;;;;;;0.00;99.90;;;;;;5011838;28;19909;-76
2022/12/13 07:20:14;;;;;;;;;;;0.00;99.90;;;;;;5011743;28;20363;-76
2022/12/13 07:22:40;;;;;;;;;;;0.10;99.90;;;;;;5011952;28;19920;-76
2022/12/13 07:25:06;;;;;;;;;;;0.10;99.90;;;;;;5011738;28;19993;-78
2022/12/13 07:27:32;;;;;;;;;;;0.10;99.90;;;;;;5012007;28;19910;-76
2022/12/13 07:29:57;;;;;;;;;;;0.10;99.90;;;;;;5011822;28;19976;-76
2022/12/13 07:32:23;;;;;;;;;;;0.10;99.90;;;;;;5011626;28;20012;-76
2022/12/13 07:34:49;;;;;;;;;;;0.20;99.90;;;;;;5011446;28;19976;-79
2022/12/13 07:37:15;;;;;;;;;;;0.10;99.90;;;;;;5011791;28;20024;-77
2022/12/13 07:39:41;;;;;;;;;;;0.20;99.90;;;;;;5011744;28;20318;-76
2022/12/13 07:42:06;;;;;;;;;;;0.20;99.90;;;;;;5010916;28;19921;-77
2022/12/13 07:44:32;;;;;;;;;;;0.20;99.90;;;;;;5011806;28;20401;-77
2022/12/13 07:46:57;;;;;;;;;;;0.20;99.90;;;;;;5011358;28;19910;-77
2022/12/13 07:49:23;;;;;;;;;;;0.20;99.90;;;;;;5011722;28;19916;-77
2022/12/13 07:51:49;;;;;;;;;;;0.20;99.90;;;;;;5011392;28;20358;-79
2022/12/13 07:54:15;;;;;;;;;;;0.20;99.90;;;;;;5011523;28;19917;-76
2022/12/13 07:56:40;;;;;;;;;;;0.20;99.90;;;;;;5011087;28;19909;-77
2022/12/13 07:59:06;;;;;;;;;;;0.10;99.90;;;;;;5011106;28;19921;-76
2022/12/13 08:01:33;;;;;;;;;;;0.10;99.90;;;;;;5011560;28;19913;-76
2022/12/13 08:03:59;;;;;;;;;;;0.10;99.90;;;;;;5010981;28;19909;-76
2022/12/13 08:06:25;;;;;;;;;;;0.00;99.90;;;;;;5011496;28;19989;-76
2022/12/13 08:08:53;;;;;;;;;;;0.00;99.90;;;;;;5011276;28;19980;-77
2022/12/13 08:11:19;;;;;;;;;;;0.00;99.90;;;;;;5011227;28;20011;-75
2022/12/13 08:13:45;;;;;;;;;;;0.00;99.90;;;;;;5011226;28;19964;-76
2022/12/13 08:16:11;;;;;;;;;;;0.00;99.90;;;;;;5009488;28;19916;-77
2022/12/13 08:18:38;;;;;;;;;;;0.00;99.90;;;;;;5011303;28;19913;-77
2022/12/13 08:21:05;;;;;;;;;;;0.10;99.90;;;;;;5010462;28;20355;-77
2022/12/13 08:23:32;;;;;;;;;;;0.10;99.90;;;;;;5010729;28;19909;-77
2022/12/13 08:25:57;;;;;;;;;;;0.10;99.90;;;;;;5010585;28;19909;-77
2022/12/13 08:28:24;;;;;;;;;;;0.20;99.90;;;;;;5012510;28;20299;-77
2022/12/13 08:30:50;;;;;;;;;;;0.20;99.90;;;;;;5015163;28;19917;-78
2022/12/13 08:33:16;;;;;;;;;;;0.20;99.90;;;;;;5014784;28;19996;-76
2022/12/13 08:35:41;;;;;;;;;;;0.20;99.90;;;;;;5015004;28;20059;-77
2022/12/13 08:38:07;;;;;;;;;;;0.20;99.90;;;;;;5014501;28;20005;-77
2022/12/13 08:40:33;;;;;;;;;;;0.30;99.90;;;;;;5014585;28;19913;-77
2022/12/13 08:42:59;;;;;;;;;;;0.30;99.90;;;;;;5014518;28;19964;-78
2022/12/13 08:45:25;;;;;;;;;;;0.40;99.90;;;;;;5014743;28;19910;-77
2022/12/13 08:47:51;;;;;;;;;;;0.40;99.90;;;;;;5014332;28;20386;-77
2022/12/13 08:50:17;;;;;;;;;;;0.50;99.90;;;;;;5014461;28;19910;-76
2022/12/13 08:52:43;;;;;;;;;;;0.60;99.90;;;;;;5014550;28;19909;-78
2022/12/13 08:55:10;;;;;;;;;;;0.60;99.90;;;;;;5014495;28;19952;-76
2022/12/13 08:57:36;;;;;;;;;;;0.60;99.90;;;;;;5013396;28;20251;-76
2022/12/13 09:00:02;;;;;;;;;;;0.70;99.90;;;;;;5014941;28;19914;-76
2022/12/13 09:02:28;;;;;;;;;;;0.80;99.90;;;;;;5015672;28;19921;-77
2022/12/13 09:04:54;;;;;;;;;;;0.90;99.90;;;;;;5016126;28;19916;-80
2022/12/13 09:07:20;;;;;;;;;;;0.90;99.90;;;;;;5017229;28;19910;-77
2022/12/13 09:09:45;;;;;;;;;;;1.10;99.90;;;;;;5017654;28;20020;-77
2022/12/13 09:12:11;;;;;;;;;;;1.20;99.90;;;;;;5019084;28;19909;-77
2022/12/13 09:14:36;;;;;;;;;;;1.30;99.90;;;;;;5016875;28;19920;-77
2022/12/13 09:17:02;;;;;;;;;;;1.30;99.90;;;;;;5013180;28;20366;-76
2022/12/13 09:19:27;;;;;;;;;;;1.40;99.90;;;;;;5014364;28;20060;-76
2022/12/13 09:21:53;;;;;;;;;;;1.40;99.90;;;;;;5014501;28;19914;-73
2022/12/13 09:24:19;;;;;;;;;;;1.40;99.90;;;;;;5013756;28;19943;-73
2022/12/13 09:26:45;;;;;;;;;;;1.50;99.90;;;;;;5014119;28;20271;-76
2022/12/13 09:29:10;;;;;;;;;;;1.50;99.90;;;;;;5013472;28;19910;-76
2022/12/13 09:31:37;;;;;;;;;;;1.60;99.90;;;;;;5013955;28;20307;-76
2022/12/13 09:34:02;;;;;;;;;;;1.60;99.90;;;;;;5012129;28;20350;-76
2022/12/13 09:36:28;;;;;;;;;;;1.60;99.90;;;;;;5013692;28;19922;-76
2022/12/13 09:38:54;;;;;;;;;;;1.60;99.90;;;;;;5013293;28;19945;-77
2022/12/13 09:41:20;;;;;;;;;;;1.70;99.90;;;;;;5012865;28;19921;-76
2022/12/13 09:43:47;;;;;;;;;;;1.70;99.90;;;;;;5014004;28;19913;-78
2022/12/13 09:46:30;;;;;;;;;;;1.70;99.90;;;;;;5013684;28;19909;-77
2022/12/13 09:48:57;;;;;;;;;;;1.70;99.90;;;;;;5012848;28;19909;-80
2022/12/13 09:51:23;;;;;;;;;;;1.70;99.90;;;;;;5013615;28;19956;-77
2022/12/13 09:53:50;;;;;;;;;;;1.70;99.90;;;;;;5014105;28;19913;-77
2022/12/13 09:56:20;;;;;;;;;;;1.80;99.90;;;;;;5013287;28;20278;-77
2022/12/13 09:58:52;;;;;;;;;;;1.90;99.90;;;;;;5013445;28;20000;-77
2022/12/13 10:01:19;;;;;;;;;;;2.00;99.90;;;;;;5013093;28;20039;-77
2022/12/13 10:03:49;;;;;;;;;;;2.10;99.90;;;;;;5013179;28;19909;-77
2022/12/13 10:06:27;;;;;;;;;;;2.10;99.90;;;;;;5012911;28;19910;-77
2022/12/13 10:08:54;;;;;;;;;;;2.20;99.90;;;;;;5011869;28;19909;-77
2022/12/13 10:11:21;;;;;;;;;;;2.20;99.90;;;;;;5012318;28;19996;-78
2022/12/13 10:13:55;;;;;;;;;;;2.20;99.90;;;;;;5013090;28;19950;-76
2022/12/13 10:16:27;;;;;;;;;;;2.30;99.90;;;;;;5011001;28;20378;-77
2022/12/13 10:18:53;;;;;;;;;;;2.30;99.90;;;;;;5012989;28;20028;-77
2022/12/13 10:21:24;;;;;;;;;;;2.30;99.90;;;;;;5012595;28;20016;-77
2022/12/13 10:23:50;;;;;;;;;;;2.30;99.90;;;;;;5011453;28;19909;-77
2022/12/13 10:26:15;;;;;;;;;;;2.30;99.90;;;;;;5010823;28;19910;-77
2022/12/13 10:28:42;;;;;;;;;;;2.30;99.90;;;;;;5012571;28;19909;-77
2022/12/13 10:31:08;;;;;;;;;;;2.30;99.90;;;;;;5012705;28;19932;-77
2022/12/13 10:33:39;;;;;;;;;;;2.40;99.90;;;;;;5012579;28;20339;-77
2022/12/13 10:36:14;;;;;;;;;;;2.40;99.90;;;;;;5011539;28;19936;-77
2022/12/13 10:38:41;;;;;;;;;;;2.40;99.90;;;;;;5012385;28;19965;-77
2022/12/13 10:41:25;;;;;;;;;;;2.50;99.90;;;;;;5011760;28;19975;-78
2022/12/13 10:44:06;;;;;;;;;;;2.60;99.90;;;;;;5012416;28;19918;-78
2022/12/13 10:46:31;;;;;;;;;;;2.60;99.90;;;;;;5012217;28;20367;-77
2022/12/13 10:48:57;;;;;;;;;;;2.60;99.90;;;;;;5012197;28;19952;-77
2022/12/13 10:51:23;;;;;;;;;;;2.60;99.90;;;;;;5011114;28;19910;-77
2022/12/13 10:53:50;;;;;;;;;;;2.50;99.90;;;;;;5012089;28;20059;-77
2022/12/13 10:56:16;;;;;;;;;;;2.40;99.90;;;;;;5011551;28;19940;-77
2022/12/13 10:58:43;;;;;;;;;;;2.30;99.90;;;;;;5011809;28;19914;-77
2022/12/13 11:01:22;;;;;;;;;;;2.30;99.90;;;;;;5011437;28;20346;-76
2022/12/13 11:03:58;;;;;;;;;;;2.30;99.90;;;;;;5012115;28;19921;-77
2022/12/13 11:06:24;;;;;;;;;;;2.40;99.90;;;;;;5011787;28;19913;-78
2022/12/13 11:08:49;;;;;;;;;;;2.40;99.90;;;;;;5012017;28;19937;-77
2022/12/13 11:11:16;;;;;;;;;;;2.40;99.90;;;;;;5011519;28;20359;-78
2022/12/13 11:13:49;;;;;;;;;;;2.40;99.90;;;;;;5011742;28;20017;-76
2022/12/13 11:16:17;;;;;;;;;;;2.50;99.90;;;;;;5011582;28;20421;-76
2022/12/13 11:18:48;;;;;;;;;;;2.60;99.90;;;;;;5011800;28;19914;-77
2022/12/13 11:21:21;;;;;;;;;;;2.60;99.90;;;;;;5011806;28;19920;-77
2022/12/13 11:23:47;;;;;;;;;;;2.70;99.90;;;;;;5010323;28;19933;-78
2022/12/13 11:26:20;;;;;;;;;;;2.80;99.90;;;;;;5011022;28;19983;-77
2022/12/13 11:28:46;;;;;;;;;;;3.00;99.90;;;;;;5011598;28;19964;-77
2022/12/13 11:31:20;;;;;;;;;;;3.10;99.90;;;;;;5010938;28;19909;-77
2022/12/13 11:33:49;;;;;;;;;;;3.10;99.90;;;;;;5011383;28;19910;-78
2022/12/13 11:36:32;;;;;;;;;;;3.20;99.90;;;;;;5011033;28;20367;-78
2022/12/13 11:39:16;;;;;;;;;;;3.30;99.90;;;;;;5011420;28;19967;-79
2022/12/13 11:41:42;;;;;;;;;;;3.50;99.90;;;;;;5011215;28;19914;-77
2022/12/13 11:44:10;;;;;;;;;;;3.50;99.90;;;;;;5011199;28;19929;-76
2022/12/13 11:46:47;;;;;;;;;;;3.50;99.90;;;;;;5011242;28;19913;-76
2022/12/13 11:49:17;;;;;;;;;;;3.60;99.90;;;;;;5012026;28;19910;-76
2022/12/13 11:51:47;;;;;;;;;;;3.60;99.90;;;;;;5011738;28;19909;-76
2022/12/13 11:54:21;;;;;;;;;;;3.60;99.90;;;;;;5010823;28;19910;-75
2022/12/13 11:56:47;;;;;;;;;;;3.60;99.90;;;;;;5011645;28;19917;-77
2022/12/13 11:59:32;;;;;;;;;;;3.60;99.90;;;;;;5011467;28;19913;-77
2022/12/13 12:02:18;;;;;;;;;;;3.60;99.90;;;;;;5011724;28;19940;-76
2022/12/13 12:04:46;;;;;;;;;;;3.60;99.90;;;;;;5015098;28;19909;-77
2022/12/13 12:07:12;;;;;;;;;;;3.60;99.90;;;;;;5015511;28;19959;-77
2022/12/13 12:09:40;;;;;;;;;;;3.60;99.90;;;;;;5015930;28;20380;-77
2022/12/13 12:12:10;;;;;;;;;;;3.60;99.90;;;;;;5015254;28;19909;-77
2022/12/13 12:14:42;;;;;;;;;;;3.60;99.90;;;;;;5016430;28;19909;-77
2022/12/13 12:17:11;;;;;;;;;;;3.60;99.90;;;;;;5013011;28;19910;-77
2022/12/13 12:19:38;;;;;;;;;;;3.70;99.90;;;;;;5015497;28;19913;-78
2022/12/13 12:22:32;;;;;;;;;;;3.80;99.90;;;;;;5015357;28;19917;-79
2022/12/13 12:25:21;;;;;;;;;;;3.70;99.90;;;;;;5006446;28;19909;-78
2022/12/13 12:27:50;;;;;;;;;;;3.70;99.90;;;;;;5015568;28;19916;-78
2022/12/13 12:30:18;;;;;;;;;;;3.70;99.90;;;;;;5015288;28;19995;-77
2022/12/13 12:32:47;;;;;;;;;;;3.70;99.90;;;;;;5015623;28;19960;-78
2022/12/13 12:35:25;;;;;;;;;;;3.70;99.90;;;;;;5015105;28;19922;-79
2022/12/13 12:38:09;;;;;;;;;;;3.70;99.90;;;;;;5015512;28;19975;-78
2022/12/13 12:41:01;;;;;;;;;;;3.70;99.90;;;;;;5015218;28;19972;-78
2022/12/13 12:43:26;;;;;;;;;;;3.70;99.90;;;;;;4999006;28;19909;-79
2022/12/13 12:45:52;;;;;;;;;;;3.80;99.90;;;;;;5015197;28;19909;-80
2022/12/13 12:48:27;;;;;;;;;;;3.90;99.90;;;;;;5014887;28;19909;-79
2022/12/13 12:50:59;;;;;;;;;;;3.90;99.90;;;;;;5015199;28;20004;-79
2022/12/13 12:53:43;;;;;;;;;;;3.90;99.90;;;;;;5015104;28;19980;-80
2022/12/13 12:56:18;;;;;;;;;;;4.00;99.90;;;;;;5015577;28;19910;-79
2022/12/13 12:59:03;;;;;;;;;;;4.00;99.90;;;;;;5015855;28;19959;-80
2022/12/13 13:01:48;;;;;;;;;;;4.00;99.90;;;;;;5015111;28;20013;-80
2022/12/13 13:04:15;;;;;;;;;;;4.00;99.90;;;;;;5014458;28;19996;-80
2022/12/13 13:06:45;;;;;;;;;;;4.00;99.90;;;;;;5015075;28;19917;-80
2022/12/13 13:09:13;;;;;;;;;;;4.00;99.90;;;;;;5014479;28;19980;-79
2022/12/13 13:11:42;;;;;;;;;;;4.00;99.90;;;;;;5014719;28;19913;-79
2022/12/13 13:14:10;;;;;;;;;;;4.00;99.90;;;;;;5013812;28;19913;-80
2022/12/13 13:16:40;;;;;;;;;;;3.90;99.90;;;;;;5013183;28;19933;-80
2022/12/13 13:19:11;;;;;;;;;;;3.90;99.90;;;;;;5014762;28;19913;-80
2022/12/13 13:21:41;;;;;;;;;;;4.00;99.90;;;;;;5014792;28;19914;-79
2022/12/13 13:24:25;;;;;;;;;;;4.00;99.90;;;;;;5013661;28;19917;-81
2022/12/13 13:26:51;;;;;;;;;;;4.00;99.90;;;;;;5013852;28;20355;-81
2022/12/13 13:29:25;;;;;;;;;;;4.00;99.90;;;;;;5013932;28;20007;-81
2022/12/13 13:31:58;;;;;;;;;;;4.00;99.90;;;;;;5013983;28;19967;-81
2022/12/13 13:34:24;;;;;;;;;;;4.10;99.90;;;;;;5024882;28;19906;-81
2022/12/13 13:36:51;;;;;;;;;;;4.10;99.90;;;;;;5037749;28;19924;-79
2022/12/13 13:39:26;;;;;;;;;;;4.20;99.90;;;;;;5036679;28;19909;-80
2022/12/13 13:41:54;;;;;;;;;;;4.30;99.90;;;;;;5037544;28;19901;-80
2022/12/13 13:44:32;;;;;;;;;;;4.30;99.90;;;;;;5036541;28;19944;-79
2022/12/13 13:47:16;;;;;;;;;;;4.30;99.90;;;;;;5035986;28;19924;-79
2022/12/13 13:49:58;;;;;;;;;;;4.20;99.90;;;;;;5014702;28;20347;-78
2022/12/13 13:52:25;;;;;;;;;;;4.20;99.90;;;;;;5012990;28;19961;-78
2022/12/13 13:55:09;;;;;;;;;;;4.20;99.90;;;;;;5013760;28;19939;-79
2022/12/13 13:57:53;;;;;;;;;;;4.20;99.90;;;;;;5012362;28;19909;-79
2022/12/13 14:00:23;;;;;;;;;;;4.20;99.90;;;;;;5013046;28;19913;-78
2022/12/13 14:02:48;;;;;;;;;;;4.20;99.90;;;;;;5012613;28;19920;-79
2022/12/13 14:05:29;;;;;;;;;;;4.20;99.90;;;;;;5013288;28;19945;-79
2022/12/13 14:07:54;;;;;;;;;;;4.20;99.90;;;;;;5013492;28;20410;-78
2022/12/13 14:10:20;;;;;;;;;;;4.20;99.90;;;;;;5012728;28;19948;-79
2022/12/13 14:13:04;;;;;;;;;;;4.20;99.90;;;;;;5013042;28;19929;-78
2022/12/13 14:15:48;;;;;;;;;;;4.20;99.90;;;;;;5012759;28;19980;-79
2022/12/13 14:18:16;;;;;;;;;;;4.10;99.90;;;;;;5012207;28;19910;-78
2022/12/13 14:20:53;;;;;;;;;;;4.10;99.90;;;;;;5013289;28;19917;-79
2022/12/13 14:23:19;;;;;;;;;;;4.10;99.90;;;;;;5012662;28;19914;-79
2022/12/13 14:26:03;;;;;;;;;;;4.00;99.90;;;;;;5010913;28;19917;-78
2022/12/13 14:28:29;;;;;;;;;;;3.90;99.90;;;;;;5013840;28;20000;-79
2022/12/13 14:30:55;;;;;;;;;;;3.80;99.90;;;;;;5013132;28;20304;-79
2022/12/13 14:33:21;;;;;;;;;;;3.80;99.90;;;;;;5012295;28;19909;-80
2022/12/13 14:35:57;;;;;;;;;;;3.80;99.90;;;;;;5012919;28;20322;-78
2022/12/13 14:38:27;;;;;;;;;;;3.70;99.90;;;;;;5012274;28;19906;-79